Aviation Digital Data Service (ADDS)

Output produced by METARs form (0244 UTC 24 July 2017)
found at http://www.aviationweather.gov/adds/metars/
 
VQPR 240230Z 00000KT 8000 FEW008 SCT030 BKN060 17/14 Q1016 NOSIG